sensor_id;sensor_type;location;lat;lon;timestamp;pressure;altitude;pressure_sealevel;temperature;humidity
36190;BME280;22232;50.914;13.858;2023-09-07T00:02:13;98532.19;;;17.45;100.00
36190;BME280;22232;50.914;13.858;2023-09-07T00:04:41;98542.34;;;17.37;100.00
36190;BME280;22232;50.914;13.858;2023-09-07T00:07:10;98544.50;;;17.35;100.00
36190;BME280;22232;50.914;13.858;2023-09-07T00:09:38;98542.31;;;17.32;100.00
36190;BME280;22232;50.914;13.858;2023-09-07T00:12:06;98536.63;;;17.29;100.00
36190;BME280;22232;50.914;13.858;2023-09-07T00:14:33;98535.25;;;17.26;100.00
36190;BME280;22232;50.914;13.858;2023-09-07T00:17:01;98542.03;;;17.29;100.00
36190;BME280;22232;50.914;13.858;2023-09-07T00:19:30;98538.75;;;17.27;100.00
36190;BME280;22232;50.914;13.858;2023-09-07T00:21:59;98545.53;;;17.29;100.00
36190;BME280;22232;50.914;13.858;2023-09-07T00:24:27;98545.47;;;17.24;100.00
36190;BME280;22232;50.914;13.858;2023-09-07T00:26:54;98543.63;;;17.30;100.00
36190;BME280;22232;50.914;13.858;2023-09-07T00:29:22;98545.31;;;17.36;100.00
36190;BME280;22232;50.914;13.858;2023-09-07T00:31:49;98541.41;;;17.54;100.00
36190;BME280;22232;50.914;13.858;2023-09-07T00:34:17;98546.03;;;17.58;100.00
36190;BME280;22232;50.914;13.858;2023-09-07T00:36:45;98541.16;;;17.55;100.00
36190;BME280;22232;50.914;13.858;2023-09-07T00:39:13;98544.28;;;17.42;100.00
36190;BME280;22232;50.914;13.858;2023-09-07T00:41:40;98545.25;;;17.31;100.00
36190;BME280;22232;50.914;13.858;2023-09-07T00:44:08;98543.84;;;17.23;100.00
36190;BME280;22232;50.914;13.858;2023-09-07T00:46:36;98537.38;;;17.24;100.00
36190;BME280;22232;50.914;13.858;2023-09-07T00:49:04;98543.56;;;17.19;100.00
36190;BME280;22232;50.914;13.858;2023-09-07T00:51:32;98538.41;;;17.18;100.00
36190;BME280;22232;50.914;13.858;2023-09-07T00:53:59;98537.81;;;17.11;100.00
36190;BME280;22232;50.914;13.858;2023-09-07T00:56:27;98533.47;;;17.10;100.00
36190;BME280;22232;50.914;13.858;2023-09-07T00:58:56;98531.00;;;17.03;100.00
36190;BME280;22232;50.914;13.858;2023-09-07T01:01:26;98538.25;;;17.03;100.00
36190;BME280;22232;50.914;13.858;2023-09-07T01:03:54;98527.19;;;16.99;100.00
36190;BME280;22232;50.914;13.858;2023-09-07T01:06:34;98529.88;;;16.99;100.00
36190;BME280;22232;50.914;13.858;2023-09-07T01:09:16;98526.91;;;17.01;100.00
36190;BME280;22232;50.914;13.858;2023-09-07T01:11:46;98529.44;;;17.07;100.00
36190;BME280;22232;50.914;13.858;2023-09-07T01:14:14;98534.34;;;17.15;100.00
36190;BME280;22232;50.914;13.858;2023-09-07T01:16:41;98531.94;;;17.19;100.00
36190;BME280;22232;50.914;13.858;2023-09-07T01:19:10;98532.81;;;17.25;100.00
36190;BME280;22232;50.914;13.858;2023-09-07T01:21:39;98528.22;;;17.25;100.00
36190;BME280;22232;50.914;13.858;2023-09-07T01:24:08;98531.47;;;17.27;100.00
36190;BME280;22232;50.914;13.858;2023-09-07T01:26:37;98527.19;;;17.31;100.00
36190;BME280;22232;50.914;13.858;2023-09-07T01:29:08;98533.09;;;17.28;100.00
36190;BME280;22232;50.914;13.858;2023-09-07T01:31:36;98529.88;;;17.26;100.00
36190;BME280;22232;50.914;13.858;2023-09-07T01:34:08;98522.28;;;17.23;100.00
36190;BME280;22232;50.914;13.858;2023-09-07T01:36:36;98520.91;;;17.20;100.00
36190;BME280;22232;50.914;13.858;2023-09-07T01:39:04;98526.59;;;17.24;100.00
36190;BME280;22232;50.914;13.858;2023-09-07T01:41:34;98527.38;;;17.19;100.00
36190;BME280;22232;50.914;13.858;2023-09-07T01:44:02;98531.94;;;17.19;100.00
36190;BME280;22232;50.914;13.858;2023-09-07T01:46:29;98524.94;;;17.18;100.00
36190;BME280;22232;50.914;13.858;2023-09-07T01:48:57;98525.72;;;17.13;100.00
36190;BME280;22232;50.914;13.858;2023-09-07T01:51:25;98532.63;;;17.04;100.00
36190;BME280;22232;50.914;13.858;2023-09-07T01:53:55;98536.06;;;17.00;100.00
36190;BME280;22232;50.914;13.858;2023-09-07T01:56:23;98533.16;;;17.01;100.00
36190;BME280;22232;50.914;13.858;2023-09-07T01:58:50;98529.06;;;16.99;100.00
36190;BME280;22232;50.914;13.858;2023-09-07T02:01:26;98533.16;;;17.01;100.00
36190;BME280;22232;50.914;13.858;2023-09-07T02:03:54;98531.28;;;17.07;100.00
36190;BME280;22232;50.914;13.858;2023-09-07T02:06:22;98527.53;;;17.08;100.00
36190;BME280;22232;50.914;13.858;2023-09-07T02:08:49;98529.97;;;17.09;100.00
36190;BME280;22232;50.914;13.858;2023-09-07T02:11:17;98527.53;;;17.08;100.00
36190;BME280;22232;50.914;13.858;2023-09-07T02:13:47;98531.56;;;17.05;100.00
36190;BME280;22232;50.914;13.858;2023-09-07T02:16:15;98529.88;;;16.99;100.00
36190;BME280;22232;50.914;13.858;2023-09-07T02:18:44;98531.03;;;16.81;100.00
36190;BME280;22232;50.914;13.858;2023-09-07T02:21:13;98526.34;;;16.71;100.00
36190;BME280;22232;50.914;13.858;2023-09-07T02:23:41;98520.94;;;16.71;100.00
36190;BME280;22232;50.914;13.858;2023-09-07T02:26:08;98521.00;;;16.77;100.00
36190;BME280;22232;50.914;13.858;2023-09-07T02:28:36;98525.59;;;16.76;100.00
36190;BME280;22232;50.914;13.858;2023-09-07T02:31:05;98517.75;;;16.74;100.00
36190;BME280;22232;50.914;13.858;2023-09-07T02:33:33;98516.38;;;16.72;100.00
36190;BME280;22232;50.914;13.858;2023-09-07T02:36:02;98515.44;;;16.61;100.00
36190;BME280;22232;50.914;13.858;2023-09-07T02:38:30;98515.69;;;16.60;100.00
36190;BME280;22232;50.914;13.858;2023-09-07T02:40:59;98517.28;;;16.56;100.00
36190;BME280;22232;50.914;13.858;2023-09-07T02:43:27;98520.47;;;16.52;100.00
36190;BME280;22232;50.914;13.858;2023-09-07T02:45:54;98515.94;;;16.58;100.00
36190;BME280;22232;50.914;13.858;2023-09-07T02:48:23;98515.19;;;16.63;100.00
36190;BME280;22232;50.914;13.858;2023-09-07T02:50:50;98517.63;;;16.64;100.00
36190;BME280;22232;50.914;13.858;2023-09-07T02:53:21;98518.69;;;16.63;100.00
36190;BME280;22232;50.914;13.858;2023-09-07T02:55:49;98517.31;;;16.61;100.00
36190;BME280;22232;50.914;13.858;2023-09-07T02:58:17;98521.09;;;16.60;100.00
36190;BME280;22232;50.914;13.858;2023-09-07T03:00:45;98525.59;;;16.54;100.00
36190;BME280;22232;50.914;13.858;2023-09-07T03:03:18;98529.34;;;16.53;100.00
36190;BME280;22232;50.914;13.858;2023-09-07T03:05:47;98526.16;;;16.56;100.00
36190;BME280;22232;50.914;13.858;2023-09-07T03:08:15;98522.91;;;16.54;100.00
36190;BME280;22232;50.914;13.858;2023-09-07T03:10:43;98521.81;;;16.55;100.00
36190;BME280;22232;50.914;13.858;2023-09-07T03:13:11;98515.94;;;16.58;100.00
36190;BME280;22232;50.914;13.858;2023-09-07T03:15:40;98520.50;;;16.58;100.00
36190;BME280;22232;50.914;13.858;2023-09-07T03:18:11;98522.50;;;16.67;100.00
36190;BME280;22232;50.914;13.858;2023-09-07T03:20:40;98514.75;;;16.71;100.00
36190;BME280;22232;50.914;13.858;2023-09-07T03:23:08;98517.44;;;16.71;100.00
36190;BME280;22232;50.914;13.858;2023-09-07T03:25:36;98513.88;;;16.65;100.00
36190;BME280;22232;50.914;13.858;2023-09-07T03:28:04;98513.25;;;16.58;100.00
36190;BME280;22232;50.914;13.858;2023-09-07T03:30:34;98511.94;;;16.61;100.00
36190;BME280;22232;50.914;13.858;2023-09-07T03:33:04;98509.50;;;16.59;100.00
36190;BME280;22232;50.914;13.858;2023-09-07T03:35:33;98511.31;;;16.54;100.00
36190;BME280;22232;50.914;13.858;2023-09-07T03:38:00;98511.50;;;16.47;100.00
36190;BME280;22232;50.914;13.858;2023-09-07T03:40:28;98516.53;;;16.38;100.00
36190;BME280;22232;50.914;13.858;2023-09-07T03:42:56;98511.06;;;16.33;100.00
36190;BME280;22232;50.914;13.858;2023-09-07T03:45:25;98523.66;;;16.27;100.00
36190;BME280;22232;50.914;13.858;2023-09-07T03:47:53;98502.06;;;16.22;100.00
36190;BME280;22232;50.914;13.858;2023-09-07T03:50:21;98520.25;;;16.15;100.00
36190;BME280;22232;50.914;13.858;2023-09-07T03:52:49;98517.03;;;16.13;100.00
36190;BME280;22232;50.914;13.858;2023-09-07T03:55:17;98516.94;;;16.08;100.00
36190;BME280;22232;50.914;13.858;2023-09-07T03:57:46;98520.63;;;16.02;100.00
36190;BME280;22232;50.914;13.858;2023-09-07T04:00:13;98520.38;;;16.03;100.00
36190;BME280;22232;50.914;13.858;2023-09-07T04:02:47;98520.63;;;16.02;100.00
36190;BME280;22232;50.914;13.858;2023-09-07T04:05:15;98519.56;;;16.03;100.00
36190;BME280;22232;50.914;13.858;2023-09-07T04:07:43;98525.44;;;16.00;100.00
36190;BME280;22232;50.914;13.858;2023-09-07T04:10:11;98526.00;;;16.02;100.00
36190;BME280;22232;50.914;13.858;2023-09-07T04:12:38;98526.81;;;16.02;100.00
36190;BME280;22232;50.914;13.858;2023-09-07T04:15:06;98525.75;;;16.03;100.00
36190;BME280;22232;50.914;13.858;2023-09-07T04:17:34;98523.25;;;15.97;100.00
36190;BME280;22232;50.914;13.858;2023-09-07T04:20:08;98532.38;;;15.96;100.00
36190;BME280;22232;50.914;13.858;2023-09-07T04:22:36;98524.88;;;15.98;100.00
36190;BME280;22232;50.914;13.858;2023-09-07T04:25:04;98530.50;;;15.96;100.00
36190;BME280;22232;50.914;13.858;2023-09-07T04:27:32;98534.66;;;16.04;100.00
36190;BME280;22232;50.914;13.858;2023-09-07T04:30:03;98535.19;;;16.06;100.00
36190;BME280;22232;50.914;13.858;2023-09-07T04:32:31;98533.22;;;16.18;100.00
36190;BME280;22232;50.914;13.858;2023-09-07T04:34:59;98533.06;;;16.47;100.00
36190;BME280;22232;50.914;13.858;2023-09-07T04:37:30;98540.50;;;16.84;100.00
36190;BME280;22232;50.914;13.858;2023-09-07T04:39:58;98534.75;;;17.29;100.00
36190;BME280;22232;50.914;13.858;2023-09-07T04:42:25;98537.50;;;17.72;100.00
36190;BME280;22232;50.914;13.858;2023-09-07T04:44:53;98532.41;;;18.18;100.00
36190;BME280;22232;50.914;13.858;2023-09-07T04:47:21;98528.53;;;18.61;100.00
36190;BME280;22232;50.914;13.858;2023-09-07T04:49:49;98537.91;;;19.11;98.14
36190;BME280;22232;50.914;13.858;2023-09-07T04:52:21;98539.00;;;19.51;94.03
36190;BME280;22232;50.914;13.858;2023-09-07T04:54:49;98528.13;;;20.02;89.91
36190;BME280;22232;50.914;13.858;2023-09-07T04:57:18;98528.38;;;20.16;87.11
36190;BME280;22232;50.914;13.858;2023-09-07T04:59:47;98528.56;;;20.40;84.48
36190;BME280;22232;50.914;13.858;2023-09-07T05:02:14;98536.28;;;20.72;83.44
36190;BME280;22232;50.914;13.858;2023-09-07T05:04:42;98532.03;;;21.05;80.09
36190;BME280;22232;50.914;13.858;2023-09-07T05:07:10;98529.97;;;21.31;77.62
36190;BME280;22232;50.914;13.858;2023-09-07T05:09:38;98534.63;;;21.60;77.52
36190;BME280;22232;50.914;13.858;2023-09-07T05:12:06;98534.06;;;22.21;74.05
36190;BME280;22232;50.914;13.858;2023-09-07T05:14:33;98542.28;;;22.83;72.83
36190;BME280;22232;50.914;13.858;2023-09-07T05:17:01;98539.31;;;23.23;71.85
36190;BME280;22232;50.914;13.858;2023-09-07T05:19:30;98539.81;;;23.06;69.27
36190;BME280;22232;50.914;13.858;2023-09-07T05:21:57;98546.91;;;23.07;68.05
36190;BME280;22232;50.914;13.858;2023-09-07T05:24:25;98549.97;;;23.00;67.42
36190;BME280;22232;50.914;13.858;2023-09-07T05:26:53;98543.72;;;23.38;70.52
36190;BME280;22232;50.914;13.858;2023-09-07T05:29:21;98548.22;;;23.61;70.96
36190;BME280;22232;50.914;13.858;2023-09-07T05:31:50;98555.72;;;23.69;70.10
36190;BME280;22232;50.914;13.858;2023-09-07T05:34:18;98548.81;;;23.77;68.65
36190;BME280;22232;50.914;13.858;2023-09-07T05:36:47;98557.09;;;23.67;70.30
36190;BME280;22232;50.914;13.858;2023-09-07T05:39:15;98556.72;;;23.92;67.23
36190;BME280;22232;50.914;13.858;2023-09-07T05:41:42;98558.47;;;24.43;64.99
36190;BME280;22232;50.914;13.858;2023-09-07T05:44:10;98561.16;;;24.16;68.03
36190;BME280;22232;50.914;13.858;2023-09-07T05:46:38;98565.50;;;24.03;65.68
36190;BME280;22232;50.914;13.858;2023-09-07T05:49:06;98566.94;;;24.28;66.37
36190;BME280;22232;50.914;13.858;2023-09-07T05:51:34;98559.41;;;24.66;62.51
36190;BME280;22232;50.914;13.858;2023-09-07T05:54:02;98558.41;;;24.62;62.26
36190;BME280;22232;50.914;13.858;2023-09-07T05:56:29;98564.34;;;24.64;63.45
36190;BME280;22232;50.914;13.858;2023-09-07T05:58:57;98577.16;;;24.64;61.36
36190;BME280;22232;50.914;13.858;2023-09-07T06:01:25;98572.13;;;24.57;62.48
36190;BME280;22232;50.914;13.858;2023-09-07T06:03:53;98577.22;;;24.31;64.24
36190;BME280;22232;50.914;13.858;2023-09-07T06:06:21;98573.78;;;24.12;64.66
36190;BME280;22232;50.914;13.858;2023-09-07T06:08:49;98580.97;;;24.08;66.15
36190;BME280;22232;50.914;13.858;2023-09-07T06:11:16;98576.72;;;24.01;68.32
36190;BME280;22232;50.914;13.858;2023-09-07T06:13:45;98580.31;;;23.83;69.34
36190;BME280;22232;50.914;13.858;2023-09-07T06:16:14;98573.31;;;23.58;68.48
36190;BME280;22232;50.914;13.858;2023-09-07T06:18:42;98575.66;;;23.84;69.15
36190;BME280;22232;50.914;13.858;2023-09-07T06:21:09;98573.38;;;24.04;66.75
36190;BME280;22232;50.914;13.858;2023-09-07T06:23:37;98579.75;;;24.27;66.25
36190;BME280;22232;50.914;13.858;2023-09-07T06:26:04;98583.88;;;24.25;64.30
36190;BME280;22232;50.914;13.858;2023-09-07T06:28:32;98584.97;;;24.10;68.42
36190;BME280;22232;50.914;13.858;2023-09-07T06:31:01;98586.59;;;24.44;64.53
36190;BME280;22232;50.914;13.858;2023-09-07T06:33:29;98575.94;;;24.70;65.13
36190;BME280;22232;50.914;13.858;2023-09-07T06:35:56;98576.75;;;24.84;66.29
36190;BME280;22232;50.914;13.858;2023-09-07T06:38:29;98581.38;;;24.98;66.20
36190;BME280;22232;50.914;13.858;2023-09-07T06:40:57;98583.44;;;24.78;67.24
36190;BME280;22232;50.914;13.858;2023-09-07T06:43:25;98585.84;;;24.52;69.36
36190;BME280;22232;50.914;13.858;2023-09-07T06:45:54;98588.47;;;24.71;66.72
36190;BME280;22232;50.914;13.858;2023-09-07T06:48:22;98585.75;;;24.57;71.56
36190;BME280;22232;50.914;13.858;2023-09-07T06:50:50;98580.00;;;24.72;68.74
36190;BME280;22232;50.914;13.858;2023-09-07T06:53:17;98591.13;;;24.62;74.50
36190;BME280;22232;50.914;13.858;2023-09-07T06:55:45;98586.44;;;24.77;70.61
36190;BME280;22232;50.914;13.858;2023-09-07T06:58:13;98586.97;;;24.92;67.97
36190;BME280;22232;50.914;13.858;2023-09-07T07:00:40;98591.88;;;25.04;73.36
36190;BME280;22232;50.914;13.858;2023-09-07T07:03:08;98592.44;;;25.29;67.22
36190;BME280;22232;50.914;13.858;2023-09-07T07:05:36;98592.38;;;25.20;67.02
36190;BME280;22232;50.914;13.858;2023-09-07T07:08:03;98596.03;;;25.02;66.84
36190;BME280;22232;50.914;13.858;2023-09-07T07:10:31;98598.50;;;25.39;68.17
36190;BME280;22232;50.914;13.858;2023-09-07T07:12:59;98590.03;;;25.27;66.18
36190;BME280;22232;50.914;13.858;2023-09-07T07:15:27;98591.69;;;25.14;69.16
36190;BME280;22232;50.914;13.858;2023-09-07T07:17:57;98591.25;;;25.21;66.15
36190;BME280;22232;50.914;13.858;2023-09-07T07:20:25;98593.03;;;25.39;72.80
36190;BME280;22232;50.914;13.858;2023-09-07T07:22:52;98590.72;;;25.55;66.47
36190;BME280;22232;50.914;13.858;2023-09-07T07:25:20;98588.88;;;25.64;63.93
36190;BME280;22232;50.914;13.858;2023-09-07T07:27:47;98591.25;;;25.21;64.56
36190;BME280;22232;50.914;13.858;2023-09-07T07:30:15;98600.25;;;25.22;64.19
36190;BME280;22232;50.914;13.858;2023-09-07T07:32:43;98597.72;;;25.25;65.65
36190;BME280;22232;50.914;13.858;2023-09-07T07:35:11;98593.66;;;25.23;67.15
36190;BME280;22232;50.914;13.858;2023-09-07T07:37:39;98597.94;;;25.15;67.07
36190;BME280;22232;50.914;13.858;2023-09-07T07:40:07;98600.75;;;25.24;66.66
36190;BME280;22232;50.914;13.858;2023-09-07T07:42:35;98610.91;;;24.68;69.29
36190;BME280;22232;50.914;13.858;2023-09-07T07:45:02;98602.41;;;24.83;67.72
36190;BME280;22232;50.914;13.858;2023-09-07T07:47:30;98596.75;;;24.93;69.56
36190;BME280;22232;50.914;13.858;2023-09-07T07:49:58;98601.19;;;25.03;66.63
36190;BME280;22232;50.914;13.858;2023-09-07T07:52:26;98602.59;;;25.01;67.48
36190;BME280;22232;50.914;13.858;2023-09-07T07:54:53;98606.66;;;24.89;67.44
36190;BME280;22232;50.914;13.858;2023-09-07T07:57:22;98601.41;;;24.93;68.38
36190;BME280;22232;50.914;13.858;2023-09-07T07:59:49;98609.50;;;24.70;67.65
36190;BME280;22232;50.914;13.858;2023-09-07T08:02:17;98609.91;;;24.78;66.28
36190;BME280;22232;50.914;13.858;2023-09-07T08:04:45;98599.38;;;24.99;67.36
36190;BME280;22232;50.914;13.858;2023-09-07T08:07:13;98601.13;;;24.81;64.02
36190;BME280;22232;50.914;13.858;2023-09-07T08:09:41;98593.00;;;25.17;65.76
36190;BME280;22232;50.914;13.858;2023-09-07T08:12:08;98596.91;;;25.25;62.54
36190;BME280;22232;50.914;13.858;2023-09-07T08:14:36;98594.88;;;25.30;62.62
36190;BME280;22232;50.914;13.858;2023-09-07T08:17:05;98595.72;;;25.53;62.42
36190;BME280;22232;50.914;13.858;2023-09-07T08:19:32;98590.19;;;25.67;61.42
36190;BME280;22232;50.914;13.858;2023-09-07T08:22:01;98583.97;;;25.98;59.80
36190;BME280;22232;50.914;13.858;2023-09-07T08:24:32;98593.16;;;26.33;58.48
36190;BME280;22232;50.914;13.858;2023-09-07T08:27:01;98592.66;;;26.31;59.61
36190;BME280;22232;50.914;13.858;2023-09-07T08:29:32;98596.00;;;26.19;56.02
36190;BME280;22232;50.914;13.858;2023-09-07T08:32:00;98597.38;;;26.08;55.61
36190;BME280;22232;50.914;13.858;2023-09-07T08:34:31;98593.78;;;25.99;57.65
36190;BME280;22232;50.914;13.858;2023-09-07T08:36:59;98589.03;;;25.82;56.03
36190;BME280;22232;50.914;13.858;2023-09-07T08:39:27;98593.94;;;25.94;56.43
36190;BME280;22232;50.914;13.858;2023-09-07T08:41:56;98588.75;;;26.15;57.05
36190;BME280;22232;50.914;13.858;2023-09-07T08:44:29;98589.75;;;25.96;57.90
36190;BME280;22232;50.914;13.858;2023-09-07T08:46:59;98587.84;;;25.97;54.57
36190;BME280;22232;50.914;13.858;2023-09-07T08:49:28;98589.22;;;26.17;56.22
36190;BME280;22232;50.914;13.858;2023-09-07T08:51:58;98602.66;;;26.04;54.72
36190;BME280;22232;50.914;13.858;2023-09-07T08:54:27;98584.44;;;25.77;55.21
36190;BME280;22232;50.914;13.858;2023-09-07T08:56:56;98593.03;;;26.07;57.42
36190;BME280;22232;50.914;13.858;2023-09-07T09:03:16;98591.59;;;26.09;55.32
36190;BME280;22232;50.914;13.858;2023-09-07T09:05:45;98592.28;;;26.15;55.43
36190;BME280;22232;50.914;13.858;2023-09-07T09:08:14;98602.53;;;26.09;56.20
36190;BME280;22232;50.914;13.858;2023-09-07T09:10:42;98600.09;;;26.08;55.56
36190;BME280;22232;50.914;13.858;2023-09-07T09:13:09;98589.97;;;26.40;55.20
36190;BME280;22232;50.914;13.858;2023-09-07T09:15:38;98597.72;;;26.46;53.06
36190;BME280;22232;50.914;13.858;2023-09-07T09:18:13;98599.41;;;26.65;54.52
36190;BME280;22232;50.914;13.858;2023-09-07T09:20:41;98601.59;;;26.94;54.96
36190;BME280;22232;50.914;13.858;2023-09-07T09:23:09;98597.50;;;27.31;54.77
36190;BME280;22232;50.914;13.858;2023-09-07T09:25:40;98595.72;;;27.18;50.99
36190;BME280;22232;50.914;13.858;2023-09-07T09:28:09;98598.69;;;26.99;53.08
36190;BME280;22232;50.914;13.858;2023-09-07T09:30:41;98593.94;;;27.31;53.97
36190;BME280;22232;50.914;13.858;2023-09-07T09:33:12;98601.53;;;27.42;51.66
36190;BME280;22232;50.914;13.858;2023-09-07T09:35:42;98596.59;;;26.96;53.58
36190;BME280;22232;50.914;13.858;2023-09-07T09:38:12;98595.81;;;27.13;51.99
36190;BME280;22232;50.914;13.858;2023-09-07T09:40:40;98593.63;;;27.41;52.12
36190;BME280;22232;50.914;13.858;2023-09-07T09:43:08;98596.84;;;27.60;53.77
36190;BME280;22232;50.914;13.858;2023-09-07T09:45:37;98588.13;;;27.58;53.21
36190;BME280;22232;50.914;13.858;2023-09-07T09:48:06;98594.88;;;27.87;52.13
36190;BME280;22232;50.914;13.858;2023-09-07T09:50:34;98589.56;;;27.90;52.35
36190;BME280;22232;50.914;13.858;2023-09-07T09:53:06;98599.25;;;27.44;52.90
36190;BME280;22232;50.914;13.858;2023-09-07T09:55:37;98593.31;;;27.34;51.69
36190;BME280;22232;50.914;13.858;2023-09-07T09:58:06;98591.38;;;27.60;52.71
36190;BME280;22232;50.914;13.858;2023-09-07T10:00:34;98588.44;;;27.65;51.26
36190;BME280;22232;50.914;13.858;2023-09-07T10:03:08;98583.63;;;27.45;49.71
36190;BME280;22232;50.914;13.858;2023-09-07T10:05:38;98578.16;;;27.28;51.87
36190;BME280;22232;50.914;13.858;2023-09-07T10:08:12;98578.78;;;27.42;51.83
36190;BME280;22232;50.914;13.858;2023-09-07T10:10:41;98575.88;;;27.82;49.45
36190;BME280;22232;50.914;13.858;2023-09-07T10:13:13;98578.28;;;27.66;50.10
36190;BME280;22232;50.914;13.858;2023-09-07T10:15:41;98578.28;;;27.92;50.37
36190;BME280;22232;50.914;13.858;2023-09-07T10:18:13;98579.00;;;28.19;49.98
36190;BME280;22232;50.914;13.858;2023-09-07T10:20:58;98578.13;;;28.35;50.04
36190;BME280;22232;50.914;13.858;2023-09-07T10:26:25;98569.13;;;28.26;48.80
36190;BME280;22232;50.914;13.858;2023-09-07T10:28:59;98570.38;;;28.38;50.04
36190;BME280;22232;50.914;13.858;2023-09-07T10:31:32;98574.00;;;28.21;46.86
36190;BME280;22232;50.914;13.858;2023-09-07T10:34:18;98572.31;;;27.90;48.66
36190;BME280;22232;50.914;13.858;2023-09-07T10:36:46;98571.19;;;27.56;49.58
36190;BME280;22232;50.914;13.858;2023-09-07T10:39:15;98564.56;;;27.05;48.60
36190;BME280;22232;50.914;13.858;2023-09-07T10:41:46;98569.66;;;26.72;50.96
36190;BME280;22232;50.914;13.858;2023-09-07T10:44:13;98569.34;;;26.34;50.49
36190;BME280;22232;50.914;13.858;2023-09-07T10:46:41;98565.06;;;26.10;52.18
36190;BME280;22232;50.914;13.858;2023-09-07T10:49:11;98565.53;;;26.43;52.91
36190;BME280;22232;50.914;13.858;2023-09-07T10:51:41;98557.78;;;26.76;52.95
36190;BME280;22232;50.914;13.858;2023-09-07T10:54:23;98564.22;;;26.89;51.40
36190;BME280;22232;50.914;13.858;2023-09-07T10:56:51;98558.06;;;26.66;50.98
36190;BME280;22232;50.914;13.858;2023-09-07T10:59:18;98555.53;;;26.79;52.43
36190;BME280;22232;50.914;13.858;2023-09-07T11:01:46;98557.00;;;26.93;52.00
36190;BME280;22232;50.914;13.858;2023-09-07T11:04:15;98552.00;;;27.04;51.84
36190;BME280;22232;50.914;13.858;2023-09-07T11:06:45;98549.59;;;27.11;50.44
36190;BME280;22232;50.914;13.858;2023-09-07T11:09:13;98553.31;;;27.07;47.90
36190;BME280;22232;50.914;13.858;2023-09-07T11:11:46;98553.63;;;26.96;50.53
36190;BME280;22232;50.914;13.858;2023-09-07T11:14:14;98555.16;;;26.63;50.40
36190;BME280;22232;50.914;13.858;2023-09-07T11:16:42;98546.69;;;26.99;51.59
36190;BME280;22232;50.914;13.858;2023-09-07T11:19:10;98551.22;;;27.04;48.13
36190;BME280;22232;50.914;13.858;2023-09-07T11:21:39;98554.31;;;27.19;48.13
36190;BME280;22232;50.914;13.858;2023-09-07T11:24:08;98544.91;;;26.86;47.90
36190;BME280;22232;50.914;13.858;2023-09-07T11:26:45;98552.63;;;26.84;48.67
36190;BME280;22232;50.914;13.858;2023-09-07T11:29:16;98553.78;;;26.91;48.78
36190;BME280;22232;50.914;13.858;2023-09-07T11:31:45;98561.78;;;26.70;46.63
36190;BME280;22232;50.914;13.858;2023-09-07T11:34:14;98550.06;;;26.79;49.30
36190;BME280;22232;50.914;13.858;2023-09-07T11:36:43;98545.69;;;26.86;48.20
36190;BME280;22232;50.914;13.858;2023-09-07T11:39:13;98550.88;;;26.96;49.07
36190;BME280;22232;50.914;13.858;2023-09-07T11:41:42;98548.63;;;26.98;47.88
36190;BME280;22232;50.914;13.858;2023-09-07T11:44:11;98553.16;;;27.12;48.44
36190;BME280;22232;50.914;13.858;2023-09-07T11:46:40;98550.25;;;26.99;48.73
36190;BME280;22232;50.914;13.858;2023-09-07T11:49:07;98553.94;;;27.04;48.50
36190;BME280;22232;50.914;13.858;2023-09-07T11:51:37;98552.22;;;27.25;48.42
36190;BME280;22232;50.914;13.858;2023-09-07T11:54:05;98545.59;;;27.43;48.93
36190;BME280;22232;50.914;13.858;2023-09-07T11:56:33;98543.16;;;27.42;48.89
36190;BME280;22232;50.914;13.858;2023-09-07T11:59:05;98548.50;;;27.47;48.80
36190;BME280;22232;50.914;13.858;2023-09-07T12:01:32;98546.72;;;27.51;45.63
36190;BME280;22232;50.914;13.858;2023-09-07T12:04:01;98548.66;;;27.42;46.10
36190;BME280;22232;50.914;13.858;2023-09-07T12:06:28;98537.03;;;27.45;47.59
36190;BME280;22232;50.914;13.858;2023-09-07T12:09:06;98538.69;;;27.29;47.91
36190;BME280;22232;50.914;13.858;2023-09-07T12:11:37;98540.63;;;27.28;46.77
36190;BME280;22232;50.914;13.858;2023-09-07T12:14:05;98547.38;;;27.22;46.96
36190;BME280;22232;50.914;13.858;2023-09-07T12:16:34;98540.75;;;27.32;47.03
36190;BME280;22232;50.914;13.858;2023-09-07T12:19:02;98538.97;;;27.10;47.83
36190;BME280;22232;50.914;13.858;2023-09-07T12:21:29;98530.31;;;27.34;47.26
36190;BME280;22232;50.914;13.858;2023-09-07T12:23:57;98528.53;;;27.29;47.31
36190;BME280;22232;50.914;13.858;2023-09-07T12:26:25;98532.69;;;27.09;45.01
36190;BME280;22232;50.914;13.858;2023-09-07T12:28:53;98534.34;;;27.28;45.15
36190;BME280;22232;50.914;13.858;2023-09-07T12:31:21;98534.34;;;27.28;44.50
36190;BME280;22232;50.914;13.858;2023-09-07T12:33:48;98524.03;;;27.25;45.98
36190;BME280;22232;50.914;13.858;2023-09-07T12:36:16;98527.56;;;27.34;45.11
36190;BME280;22232;50.914;13.858;2023-09-07T12:38:44;98524.00;;;27.42;45.71
36190;BME280;22232;50.914;13.858;2023-09-07T12:41:12;98529.16;;;27.52;45.22
36190;BME280;22232;50.914;13.858;2023-09-07T12:43:39;98523.53;;;27.49;45.14
36190;BME280;22232;50.914;13.858;2023-09-07T12:46:07;98520.28;;;27.55;45.44
36190;BME280;22232;50.914;13.858;2023-09-07T12:48:35;98521.88;;;27.56;45.26
36190;BME280;22232;50.914;13.858;2023-09-07T12:51:02;98525.59;;;27.60;44.30
36190;BME280;22232;50.914;13.858;2023-09-07T12:53:30;98518.84;;;27.49;44.40
36190;BME280;22232;50.914;13.858;2023-09-07T12:55:58;98510.41;;;27.72;44.05
36190;BME280;22232;50.914;13.858;2023-09-07T12:58:26;98511.88;;;27.78;44.69
36190;BME280;22232;50.914;13.858;2023-09-07T13:00:53;98508.94;;;27.74;43.09